Time;durP1;ratioP1;P1;durP2;ratioP2;P2;SDS_P1;SDS_P2;PMS_P1;PMS_P2;Temp;Humidity;BMP_temperature;BMP_pressure;BME280_temperature;BME280_humidity;BME280_pressure;Samples;Min_cycle;Max_cycle;Signal;HPM_P1;HPM_P2
2021/09/27 00:01:06;;;;;;;11.70;10.50;;;17.70;99.90;;;;;;4996205;28;20263;-70
2021/09/27 00:03:32;;;;;;;11.23;10.03;;;17.70;99.90;;;;;;4996320;28;20590;-71
2021/09/27 00:05:58;;;;;;;12.53;11.20;;;17.60;99.90;;;;;;4994771;28;20534;-71
2021/09/27 00:08:24;;;;;;;13.30;11.10;;;17.50;99.90;;;;;;4996226;28;20287;-70
2021/09/27 00:11:03;;;;;;;12.67;10.70;;;17.50;99.90;;;;;;4995646;28;20773;-70
2021/09/27 00:13:33;;;;;;;11.60;10.10;;;17.50;99.90;;;;;;4996097;28;20167;-70
2021/09/27 00:15:59;;;;;;;10.87;9.60;;;17.40;99.90;;;;;;4994501;28;20403;-71
2021/09/27 00:18:25;;;;;;;11.23;10.03;;;17.40;99.90;;;;;;4995721;28;20468;-70
2021/09/27 00:20:59;;;;;;;11.13;10.03;;;17.40;99.90;;;;;;4995686;28;20427;-70
2021/09/27 00:23:30;;;;;;;12.00;10.70;;;17.40;99.90;;;;;;4996470;28;20396;-71
2021/09/27 00:25:55;;;;;;;11.93;10.73;;;17.40;99.90;;;;;;4994353;28;20525;-72
2021/09/27 00:28:21;;;;;;;12.50;10.90;;;17.30;99.90;;;;;;4995993;28;20925;-71
2021/09/27 00:30:48;;;;;;;13.00;11.70;;;17.20;99.90;;;;;;4995032;28;20200;-70
2021/09/27 00:33:15;;;;;;;11.07;10.07;;;17.20;99.90;;;;;;4996506;28;20181;-71
2021/09/27 00:35:41;;;;;;;13.70;10.80;;;17.10;99.90;;;;;;4997900;28;20415;-71
2021/09/27 00:38:08;;;;;;;12.10;10.90;;;17.00;99.90;;;;;;4997369;28;20537;-71
2021/09/27 00:40:39;;;;;;;11.87;10.67;;;17.00;99.90;;;;;;4996862;28;20180;-71
2021/09/27 00:43:06;;;;;;;11.70;10.50;;;17.00;99.90;;;;;;4996755;28;20431;-70
2021/09/27 00:45:38;;;;;;;10.90;9.80;;;17.10;99.90;;;;;;4995590;28;20957;-71
2021/09/27 00:48:04;;;;;;;12.48;10.82;;;17.10;99.90;;;;;;4995159;28;20427;-70
2021/09/27 00:50:34;;;;;;;12.37;10.27;;;17.10;99.90;;;;;;4995466;28;20191;-70
2021/09/27 00:53:04;;;;;;;10.30;9.30;;;17.10;99.90;;;;;;4995259;28;20498;-70
2021/09/27 00:55:30;;;;;;;16.30;10.90;;;17.20;99.90;;;;;;4996526;28;20907;-73
2021/09/27 00:57:56;;;;;;;11.57;10.37;;;17.20;99.90;;;;;;4995903;28;20435;-70
2021/09/27 01:00:25;;;;;;;10.30;9.40;;;17.20;99.90;;;;;;4995583;28;20590;-70
2021/09/27 01:02:51;;;;;;;11.40;10.27;;;17.20;99.90;;;;;;4995621;28;20733;-71
2021/09/27 01:05:19;;;;;;;10.73;9.33;;;17.20;99.90;;;;;;4994645;28;20451;-71
2021/09/27 01:07:51;;;;;;;14.83;9.97;;;17.30;99.90;;;;;;4992805;28;20456;-71
2021/09/27 01:10:33;;;;;;;11.30;10.20;;;17.30;99.90;;;;;;4990961;28;20430;-71
2021/09/27 01:13:22;;;;;;;11.40;10.30;;;17.30;99.90;;;;;;4995131;28;20407;-71
2021/09/27 01:16:19;;;;;;;10.90;9.47;;;17.30;99.90;;;;;;4993365;28;20924;-70
2021/09/27 01:19:23;;;;;;;10.00;9.10;;;17.30;99.90;;;;;;4995909;28;20427;-71
2021/09/27 01:22:30;;;;;;;11.00;9.97;;;17.30;99.90;;;;;;4995115;28;20569;-70
2021/09/27 01:25:34;;;;;;;10.97;9.87;;;17.30;99.90;;;;;;4997052;28;20518;-71
2021/09/27 01:28:19;;;;;;;11.70;10.40;;;17.30;99.90;;;;;;5006771;28;20433;-70
2021/09/27 01:31:15;;;;;;;10.30;9.30;;;17.20;99.90;;;;;;5005976;28;20979;-70
2021/09/27 01:33:53;;;;;;;11.23;10.23;;;17.20;99.90;;;;;;4995977;28;20400;-70
2021/09/27 01:36:40;;;;;;;11.17;10.13;;;17.20;99.90;;;;;;5010039;28;20427;-72
2021/09/27 01:39:17;;;;;;;12.00;10.80;;;17.10;99.90;;;;;;5008543;28;20424;-70
2021/09/27 01:41:51;;;;;;;10.90;9.90;;;17.10;99.90;;;;;;4994487;28;20401;-71
2021/09/27 01:44:54;;;;;;;14.97;11.30;;;17.10;99.90;;;;;;4994051;28;20408;-70
2021/09/27 01:47:38;;;;;;;12.37;11.07;;;17.10;99.90;;;;;;4994010;28;20439;-70
2021/09/27 01:50:15;;;;;;;12.40;10.40;;;17.10;99.90;;;;;;4994710;28;20519;-70
2021/09/27 01:52:50;;;;;;;11.67;10.47;;;17.10;99.90;;;;;;4994504;28;20434;-71
2021/09/27 01:55:41;;;;;;;13.07;11.70;;;17.10;99.90;;;;;;4997568;28;20418;-70
2021/09/27 01:58:15;;;;;;;12.93;11.40;;;17.10;99.90;;;;;;4993889;28;20451;-71
2021/09/27 02:00:48;;;;;;;13.47;12.17;;;17.00;99.90;;;;;;4992944;28;20415;-70
2021/09/27 02:03:25;;;;;;;13.53;12.23;;;16.80;99.90;;;;;;4994125;28;20461;-71
2021/09/27 02:06:08;;;;;;;13.50;11.20;;;16.80;99.90;;;;;;4994301;28;20490;-70
2021/09/27 02:08:40;;;;;;;13.60;11.00;;;16.70;99.90;;;;;;4992565;28;20546;-70
2021/09/27 02:11:21;;;;;;;12.57;10.93;;;16.70;99.90;;;;;;4994352;28;20502;-71
2021/09/27 02:14:06;;;;;;;13.30;11.60;;;16.60;99.90;;;;;;4994169;28;20406;-71
2021/09/27 02:16:55;;;;;;;13.93;12.53;;;16.60;99.90;;;;;;4992606;28;20431;-70
2021/09/27 02:19:45;;;;;;;12.23;11.00;;;16.50;99.90;;;;;;4993862;28;20431;-70
2021/09/27 02:22:29;;;;;;;12.83;11.50;;;16.50;99.90;;;;;;4997555;28;20438;-71
2021/09/27 02:25:06;;;;;;;13.10;11.80;;;16.40;99.90;;;;;;4998139;28;20407;-71
2021/09/27 02:27:31;;;;;;;13.27;11.47;;;16.40;99.90;;;;;;4998034;28;20422;-70
2021/09/27 02:29:57;;;;;;;13.97;12.67;;;16.40;99.90;;;;;;4997563;28;20925;-70
2021/09/27 02:33:07;;;;;;;13.90;12.60;;;16.40;99.90;;;;;;4998546;28;20419;-70
2021/09/27 02:35:50;;;;;;;16.23;12.67;;;16.40;99.90;;;;;;4921595;29;20475;-70
2021/09/27 02:38:33;;;;;;;15.03;12.07;;;16.40;99.90;;;;;;4937221;29;20474;-70
2021/09/27 02:41:22;;;;;;;13.60;12.20;;;16.40;99.90;;;;;;4937337;29;20438;-70
2021/09/27 02:43:47;;;;;;;13.30;10.73;;;16.40;99.90;;;;;;4937385;29;20434;-70
2021/09/27 02:46:14;;;;;;;12.83;11.40;;;16.40;99.90;;;;;;4937514;29;20480;-71
2021/09/27 02:48:47;;;;;;;12.80;11.40;;;16.40;99.90;;;;;;4937643;29;20218;-71
2021/09/27 02:51:13;;;;;;;11.97;10.73;;;16.40;99.90;;;;;;4938583;29;20442;-71
2021/09/27 02:53:40;;;;;;;13.40;12.00;;;16.40;99.90;;;;;;4937351;29;20476;-68
2021/09/27 02:56:24;;;;;;;13.23;11.63;;;16.40;99.90;;;;;;4937740;29;20500;-70
2021/09/27 02:59:18;;;;;;;13.80;12.07;;;16.50;99.90;;;;;;4937984;29;20566;-70
2021/09/27 03:01:49;;;;;;;12.23;11.03;;;16.50;99.90;;;;;;4937793;29;20473;-70
2021/09/27 03:04:53;;;;;;;13.73;11.53;;;16.60;99.90;;;;;;4937054;29;20437;-71
2021/09/27 03:07:55;;;;;;;12.53;11.13;;;16.70;99.90;;;;;;4918799;29;20470;-70
2021/09/27 03:10:43;;;;;;;11.37;10.13;;;16.80;99.90;;;;;;4918366;29;20445;-70
2021/09/27 03:13:25;;;;;;;11.43;9.67;;;16.90;99.90;;;;;;4994924;28;20403;-70
2021/09/27 03:15:53;;;;;;;11.50;10.40;;;17.10;99.90;;;;;;4995284;28;20986;-70
2021/09/27 03:18:37;;;;;;;16.63;10.60;;;17.20;99.90;;;;;;4994790;28;20482;-71
2021/09/27 03:21:27;;;;;;;11.27;10.27;;;17.20;99.90;;;;;;4994832;28;20892;-70
2021/09/27 03:24:10;;;;;;;10.90;9.60;;;17.30;99.90;;;;;;4995403;28;20943;-70
2021/09/27 03:27:14;;;;;;;10.40;9.40;;;17.30;99.90;;;;;;4994219;28;20846;-70
2021/09/27 03:29:56;;;;;;;10.60;9.50;;;17.40;99.90;;;;;;4984876;28;20534;-70
2021/09/27 03:32:39;;;;;;;11.60;10.10;;;17.40;99.90;;;;;;4994149;28;20419;-70
2021/09/27 03:35:20;;;;;;;10.00;9.07;;;17.50;99.90;;;;;;4978226;28;20438;-69
2021/09/27 03:37:51;;;;;;;11.50;10.30;;;17.50;99.90;;;;;;4989474;28;20444;-70
2021/09/27 03:40:38;;;;;;;10.17;9.17;;;17.60;99.90;;;;;;4977395;28;20408;-70
2021/09/27 03:43:08;;;;;;;8.90;7.77;;;17.60;99.90;;;;;;4977299;28;20412;-69
2021/09/27 03:45:51;;;;;;;9.30;8.40;;;17.70;99.90;;;;;;4977260;28;20485;-71
2021/09/27 03:48:23;;;;;;;10.20;9.20;;;17.80;99.90;;;;;;4982707;28;20482;-70
2021/09/27 03:51:05;;;;;;;9.17;8.30;;;17.90;99.90;;;;;;4991999;28;20990;-70
2021/09/27 03:53:43;;;;;;;9.70;8.80;;;17.90;99.90;;;;;;4989267;28;20501;-70
2021/09/27 03:56:16;;;;;;;9.27;8.13;;;18.10;99.90;;;;;;4996261;28;20407;-70
2021/09/27 03:58:50;;;;;;;9.10;8.10;;;18.10;99.90;;;;;;4995597;28;20451;-70
2021/09/27 04:01:22;;;;;;;9.70;8.73;;;18.20;99.90;;;;;;4992548;28;20939;-69
2021/09/27 04:04:03;;;;;;;8.77;8.03;;;18.20;99.90;;;;;;4987646;28;20238;-69
2021/09/27 04:06:53;;;;;;;9.93;8.97;;;18.30;99.90;;;;;;4986409;28;20983;-70
2021/09/27 04:09:39;;;;;;;9.00;8.20;;;18.30;99.90;;;;;;4994957;28;20427;-71
2021/09/27 04:12:31;;;;;;;9.47;8.20;;;18.30;99.90;;;;;;4996844;28;20172;-69
2021/09/27 04:15:12;;;;;;;9.23;8.37;;;18.40;99.90;;;;;;4996525;28;20445;-70
2021/09/27 04:18:03;;;;;;;8.90;8.10;;;18.40;99.90;;;;;;4995172;28;20443;-71
2021/09/27 04:20:38;;;;;;;9.40;8.00;;;18.40;99.90;;;;;;4976609;28;20388;-71
2021/09/27 04:23:39;;;;;;;8.27;7.47;;;18.50;99.90;;;;;;4976995;28;20420;-71
2021/09/27 04:26:09;;;;;;;10.60;8.40;;;18.50;99.90;;;;;;4992243;28;20453;-71
2021/09/27 04:29:10;;;;;;;9.00;8.17;;;18.50;99.90;;;;;;4995404;28;20949;-71
2021/09/27 04:31:54;;;;;;;8.73;7.93;;;18.60;99.90;;;;;;4996537;28;20419;-70
2021/09/27 04:34:53;;;;;;;9.20;8.27;;;18.60;99.90;;;;;;4996248;28;20395;-69
2021/09/27 04:37:20;;;;;;;9.90;7.63;;;18.60;99.90;;;;;;4996458;28;20956;-69
2021/09/27 04:39:47;;;;;;;8.80;7.97;;;18.60;99.90;;;;;;4997361;28;20428;-69
2021/09/27 04:42:35;;;;;;;12.57;8.07;;;18.50;99.90;;;;;;4996931;28;20534;-68
2021/09/27 04:45:15;;;;;;;8.67;7.93;;;18.50;99.90;;;;;;5001959;28;20392;-70
2021/09/27 04:47:59;;;;;;;9.40;7.67;;;18.50;99.90;;;;;;5013446;28;20431;-70
2021/09/27 04:50:45;;;;;;;7.87;7.07;;;18.50;99.90;;;;;;5004599;28;20443;-70
2021/09/27 04:53:30;;;;;;;7.70;7.00;;;18.60;99.90;;;;;;5015277;28;20411;-70
2021/09/27 04:56:27;;;;;;;9.47;7.57;;;18.60;99.90;;;;;;5016173;28;20403;-71
2021/09/27 04:59:17;;;;;;;8.67;7.80;;;18.60;99.90;;;;;;4998008;28;20430;-70
2021/09/27 05:01:58;;;;;;;9.33;8.40;;;18.60;99.90;;;;;;4996329;28;20399;-70
2021/09/27 05:05:11;;;;;;;9.10;7.90;;;18.60;99.90;;;;;;4996141;28;20514;-71
2021/09/27 05:08:11;;;;;;;8.90;8.10;;;18.60;99.90;;;;;;4916296;29;20463;-70
2021/09/27 05:10:58;;;;;;;9.10;8.30;;;18.60;99.90;;;;;;4918635;29;20442;-71
2021/09/27 05:13:43;;;;;;;7.70;7.00;;;18.60;99.90;;;;;;4916362;29;20431;-71
2021/09/27 05:16:17;;;;;;;9.67;8.07;;;18.50;99.90;;;;;;4916526;29;20499;-70
2021/09/27 05:18:43;;;;;;;9.70;8.40;;;18.50;99.90;;;;;;4915765;29;20442;-70
2021/09/27 05:21:41;;;;;;;10.97;7.73;;;18.50;99.90;;;;;;4916276;29;20415;-70
2021/09/27 05:24:57;;;;;;;8.63;7.73;;;18.50;99.90;;;;;;4925001;29;20179;-70
2021/09/27 05:27:34;;;;;;;9.50;8.07;;;18.50;99.90;;;;;;4866808;29;20489;-70
2021/09/27 05:30:29;;;;;;;9.70;7.90;;;18.50;99.90;;;;;;4859897;29;20447;-70
2021/09/27 05:33:21;;;;;;;9.00;8.07;;;18.60;99.90;;;;;;4860244;29;20508;-71
2021/09/27 05:35:53;;;;;;;10.10;7.63;;;18.60;99.90;;;;;;4852415;29;20807;-70
2021/09/27 05:38:33;;;;;;;8.60;7.80;;;18.70;99.90;;;;;;4894620;29;20429;-70
2021/09/27 05:41:13;;;;;;;9.98;8.60;;;18.70;99.90;;;;;;4952510;28;20450;-70
2021/09/27 05:44:01;;;;;;;9.60;8.30;;;18.70;99.90;;;;;;4954218;29;20201;-70
2021/09/27 05:46:49;;;;;;;10.10;9.10;;;18.70;99.90;;;;;;4938532;29;20461;-70
2021/09/27 05:49:49;;;;;;;8.97;8.07;;;18.60;99.90;;;;;;4936093;29;20430;-70
2021/09/27 05:52:23;;;;;;;8.80;8.00;;;18.50;99.90;;;;;;4919865;29;20426;-71
2021/09/27 05:55:01;;;;;;;12.87;7.80;;;18.60;99.90;;;;;;4934158;29;20446;-70
2021/09/27 05:57:39;;;;;;;9.30;8.30;;;18.60;99.90;;;;;;4941854;29;20452;-70
2021/09/27 06:00:22;;;;;;;9.53;8.20;;;18.60;99.90;;;;;;4920175;29;20525;-70
2021/09/27 06:03:51;;;;;;;9.50;8.57;;;18.60;99.90;;;;;;4959953;28;20822;-71
2021/09/27 06:06:24;;;;;;;8.80;8.03;;;18.60;99.90;;;;;;4933923;29;20555;-69
2021/09/27 06:09:26;;;;;;;9.67;8.77;;;18.60;99.90;;;;;;4934357;29;20473;-70
2021/09/27 06:12:10;;;;;;;9.33;8.43;;;18.60;99.90;;;;;;4918036;29;20428;-70
2021/09/27 06:14:37;;;;;;;9.00;8.20;;;18.70;99.90;;;;;;4934346;29;20923;-70
2021/09/27 06:17:05;;;;;;;9.97;8.97;;;18.70;99.90;;;;;;4933744;29;20509;-70
2021/09/27 06:19:44;;;;;;;10.60;8.50;;;18.70;99.90;;;;;;4934302;29;20421;-70
2021/09/27 06:22:43;;;;;;;9.30;8.40;;;18.70;99.90;;;;;;4934193;29;20398;-70
2021/09/27 06:25:24;;;;;;;9.93;8.23;;;18.70;99.90;;;;;;4935592;29;20410;-70
2021/09/27 06:28:07;;;;;;;8.27;7.47;;;18.70;99.90;;;;;;4928844;29;20457;-70
2021/09/27 06:30:36;;;;;;;9.30;8.47;;;18.70;99.90;;;;;;4955775;29;20426;-70
2021/09/27 06:33:20;;;;;;;10.00;9.00;;;18.70;99.90;;;;;;4941080;29;20417;-70
2021/09/27 06:35:49;;;;;;;8.57;7.77;;;18.70;99.90;;;;;;4964782;28;20419;-69
2021/09/27 06:38:16;;;;;;;10.73;9.13;;;18.60;99.90;;;;;;5012374;28;20468;-70
2021/09/27 06:40:49;;;;;;;10.30;9.30;;;18.60;99.90;;;;;;5015740;28;20471;-71
2021/09/27 06:43:19;;;;;;;9.50;8.47;;;18.60;99.90;;;;;;5016620;28;20446;-70
2021/09/27 06:45:46;;;;;;;9.10;8.30;;;18.60;99.90;;;;;;5007107;28;20505;-71
2021/09/27 06:48:11;;;;;;;10.30;9.30;;;18.60;99.90;;;;;;4994900;28;20950;-71
2021/09/27 06:50:37;;;;;;;10.77;9.77;;;18.60;99.90;;;;;;4994384;28;20431;-71
2021/09/27 06:53:02;;;;;;;9.43;8.63;;;18.50;99.90;;;;;;4994500;28;20165;-70
2021/09/27 06:55:28;;;;;;;9.77;8.77;;;18.50;99.90;;;;;;4995790;28;20323;-71
2021/09/27 06:57:54;;;;;;;9.50;8.50;;;18.50;99.90;;;;;;4995542;28;20192;-70
2021/09/27 07:00:20;;;;;;;9.43;8.43;;;18.50;99.90;;;;;;4995251;28;20172;-70
2021/09/27 07:02:45;;;;;;;9.60;8.70;;;18.60;99.90;;;;;;4995485;28;20188;-71
2021/09/27 07:05:12;;;;;;;8.63;7.87;;;18.60;99.90;;;;;;4994898;28;20971;-70
2021/09/27 07:07:39;;;;;;;9.67;8.70;;;18.70;99.90;;;;;;4993844;28;20199;-70
2021/09/27 07:10:07;;;;;;;9.87;8.97;;;18.60;99.90;;;;;;4996442;28;20955;-71
2021/09/27 07:12:33;;;;;;;9.03;8.23;;;18.70;99.90;;;;;;4997798;28;20450;-71
2021/09/27 07:14:59;;;;;;;8.37;7.57;;;18.70;99.90;;;;;;4998760;28;20450;-71
2021/09/27 07:17:25;;;;;;;10.80;9.23;;;18.80;99.90;;;;;;4997255;28;20442;-70
2021/09/27 07:19:50;;;;;;;10.73;9.30;;;18.80;99.90;;;;;;4997562;28;20940;-70
2021/09/27 07:22:16;;;;;;;10.47;9.37;;;18.90;99.90;;;;;;4996995;28;20172;-72
2021/09/27 07:24:41;;;;;;;10.70;9.00;;;18.80;99.90;;;;;;4997089;28;20540;-70
2021/09/27 07:27:07;;;;;;;10.47;9.37;;;18.70;99.90;;;;;;4996732;28;20210;-71
2021/09/27 07:29:32;;;;;;;11.70;10.60;;;18.70;99.90;;;;;;4996297;28;20419;-70
2021/09/27 07:31:59;;;;;;;10.40;9.40;;;18.60;99.90;;;;;;5013784;28;20513;-70
2021/09/27 07:34:24;;;;;;;9.23;8.30;;;18.60;99.90;;;;;;5003731;28;20242;-70
2021/09/27 07:36:50;;;;;;;10.43;9.27;;;18.60;99.90;;;;;;4997926;28;20408;-71
2021/09/27 07:39:18;;;;;;;9.63;8.73;;;18.60;99.90;;;;;;4997401;28;20657;-71
2021/09/27 07:41:44;;;;;;;9.17;8.27;;;18.60;99.90;;;;;;4996356;28;20415;-70
2021/09/27 07:44:10;;;;;;;10.33;8.83;;;18.60;99.90;;;;;;4996955;28;20522;-70
2021/09/27 07:46:36;;;;;;;10.50;9.50;;;18.70;99.90;;;;;;4996804;28;20557;-70
2021/09/27 07:49:02;;;;;;;8.60;7.80;;;18.80;99.90;;;;;;4996770;28;20215;-70
2021/09/27 07:51:28;;;;;;;9.63;8.30;;;18.80;99.90;;;;;;4997535;28;20893;-69
2021/09/27 07:53:54;;;;;;;9.20;8.27;;;18.80;99.90;;;;;;4997328;28;20203;-69
2021/09/27 07:56:20;;;;;;;10.30;9.30;;;18.70;99.90;;;;;;4997854;28;20514;-69
2021/09/27 07:58:45;;;;;;;10.17;9.17;;;18.80;99.90;;;;;;4997494;28;20211;-69
2021/09/27 08:01:13;;;;;;;9.20;8.40;;;18.70;99.90;;;;;;4997718;28;20512;-69
2021/09/27 08:03:40;;;;;;;9.00;8.20;;;18.70;99.90;;;;;;5006691;28;20163;-69
2021/09/27 08:06:06;;;;;;;10.13;9.23;;;18.70;99.90;;;;;;4996998;28;20903;-69
2021/09/27 08:08:32;;;;;;;9.82;8.60;;;18.60;99.90;;;;;;4998936;28;20433;-69
2021/09/27 08:10:58;;;;;;;9.67;8.70;;;18.60;99.90;;;;;;5012928;28;20196;-69
2021/09/27 08:13:23;;;;;;;8.97;8.17;;;18.60;99.90;;;;;;5003815;28;20765;-71
2021/09/27 08:15:53;;;;;;;9.97;9.07;;;18.70;99.90;;;;;;4994634;28;20214;-70
2021/09/27 08:18:19;;;;;;;9.80;8.80;;;18.70;99.90;;;;;;4995499;28;20546;-70
2021/09/27 08:20:51;;;;;;;10.03;9.13;;;18.80;99.90;;;;;;4996431;28;20177;-70
2021/09/27 08:23:17;;;;;;;9.20;8.30;;;18.80;99.90;;;;;;4996842;28;20404;-70
2021/09/27 08:25:43;;;;;;;8.70;7.90;;;18.90;99.90;;;;;;4996240;28;20758;-71
2021/09/27 08:28:12;;;;;;;8.70;7.90;;;19.00;99.90;;;;;;4996147;28;20443;-71
2021/09/27 08:30:43;;;;;;;8.83;7.93;;;19.10;99.90;;;;;;5002670;28;20494;-69
2021/09/27 08:33:08;;;;;;;8.87;8.10;;;19.10;99.90;;;;;;5015778;28;20906;-71
2021/09/27 08:35:34;;;;;;;8.67;7.83;;;19.30;99.90;;;;;;5016047;28;20415;-70
2021/09/27 08:38:03;;;;;;;7.83;7.03;;;19.40;99.90;;;;;;5005831;28;20199;-69
2021/09/27 08:41:06;;;;;;;8.00;7.30;;;19.50;99.90;;;;;;4995079;28;20415;-71
2021/09/27 08:43:42;;;;;;;6.57;6.00;;;19.60;99.90;;;;;;5002587;28;20930;-69
2021/09/27 08:46:32;;;;;;;7.83;7.13;;;19.80;99.90;;;;;;4997393;28;20443;-70
2021/09/27 08:49:35;;;;;;;7.33;6.63;;;19.80;99.90;;;;;;4996398;28;20961;-70
2021/09/27 08:52:02;;;;;;;8.97;8.10;;;19.80;99.90;;;;;;4995687;28;20403;-71
2021/09/27 08:54:29;;;;;;;7.90;7.10;;;19.90;99.90;;;;;;4996572;28;20453;-70
2021/09/27 08:57:09;;;;;;;7.07;6.37;;;19.90;99.90;;;;;;4995095;28;20427;-71
2021/09/27 08:59:59;;;;;;;7.40;6.80;;;19.90;99.90;;;;;;4995348;28;20804;-71
2021/09/27 09:02:41;;;;;;;7.00;6.30;;;20.00;99.90;;;;;;4996311;28;20777;-70
2021/09/27 09:05:33;;;;;;;7.23;6.63;;;20.00;99.90;;;;;;4995223;28;20450;-70
2021/09/27 09:08:13;;;;;;;7.77;6.97;;;20.00;99.90;;;;;;4995606;28;20457;-70
2021/09/27 09:10:44;;;;;;;7.30;6.70;;;20.00;99.90;;;;;;4995714;28;20486;-71
2021/09/27 09:13:17;;;;;;;6.87;6.13;;;20.20;99.90;;;;;;4995111;28;20426;-70
2021/09/27 09:15:48;;;;;;;7.53;6.30;;;20.30;99.90;;;;;;4993927;28;20412;-71
2021/09/27 09:18:21;;;;;;;6.87;5.80;;;20.30;99.90;;;;;;4995123;28;20591;-70
2021/09/27 09:20:51;;;;;;;6.47;5.87;;;20.30;99.90;;;;;;4995401;28;20953;-71
2021/09/27 09:23:31;;;;;;;6.23;5.63;;;20.40;99.90;;;;;;4995154;28;20486;-70
2021/09/27 09:25:59;;;;;;;6.60;6.00;;;20.50;99.90;;;;;;4995530;28;20557;-71
2021/09/27 09:28:24;;;;;;;6.73;6.13;;;20.60;99.90;;;;;;4994902;28;20427;-70
2021/09/27 09:31:04;;;;;;;6.30;5.70;;;20.60;99.90;;;;;;5001841;28;20425;-70
2021/09/27 09:33:49;;;;;;;6.37;5.17;;;20.70;99.90;;;;;;4999559;28;20191;-70
2021/09/27 09:36:22;;;;;;;6.03;5.53;;;20.70;99.90;;;;;;4995280;28;20458;-70
2021/09/27 09:38:49;;;;;;;7.67;5.30;;;20.70;99.90;;;;;;4995702;28;20435;-69
2021/09/27 09:41:15;;;;;;;6.47;5.60;;;20.70;99.90;;;;;;4994792;28;20458;-70
2021/09/27 09:43:45;;;;;;;5.47;5.00;;;20.70;99.90;;;;;;4994676;28;20427;-70
2021/09/27 09:46:27;;;;;;;6.20;4.90;;;20.70;99.90;;;;;;4994605;28;20455;-70
2021/09/27 09:49:09;;;;;;;5.67;5.17;;;20.80;99.90;;;;;;4994640;28;20883;-70
2021/09/27 09:51:44;;;;;;;7.17;4.87;;;20.90;99.90;;;;;;4994979;28;20820;-70
2021/09/27 09:54:17;;;;;;;5.40;4.97;;;20.90;99.90;;;;;;4994426;28;20525;-70
2021/09/27 09:57:07;;;;;;;5.10;4.60;;;20.80;99.90;;;;;;4994319;28;20506;-70
2021/09/27 09:59:39;;;;;;;6.20;4.10;;;20.80;99.90;;;;;;4994050;28;20434;-70
2021/09/27 10:02:15;;;;;;;5.10;4.60;;;20.90;99.90;;;;;;4994810;28;20502;-71
2021/09/27 10:04:51;;;;;;;5.53;4.87;;;20.90;99.90;;;;;;4994246;28;20431;-71
2021/09/27 10:07:24;;;;;;;4.73;4.23;;;20.90;99.90;;;;;;4994806;28;20473;-69
2021/09/27 10:10:05;;;;;;;6.27;4.67;;;21.10;99.90;;;;;;4995521;28;20403;-71
2021/09/27 10:12:40;;;;;;;4.90;4.40;;;21.20;99.90;;;;;;4995362;28;20407;-70
2021/09/27 10:15:07;;;;;;;3.93;3.67;;;21.20;99.90;;;;;;4996618;28;20423;-72
2021/09/27 10:17:38;;;;;;;6.90;4.60;;;21.20;99.90;;;;;;4995808;28;20428;-69
2021/09/27 10:20:30;;;;;;;4.80;4.40;;;21.20;99.90;;;;;;4994884;28;20258;-69
2021/09/27 10:23:00;;;;;;;5.00;4.40;;;21.30;99.90;;;;;;5006017;28;20499;-69
2021/09/27 10:25:31;;;;;;;5.70;4.63;;;21.50;99.90;;;;;;5002470;28;20426;-69
2021/09/27 10:27:58;;;;;;;5.77;4.23;;;21.50;99.90;;;;;;4994994;28;20439;-69
2021/09/27 10:30:36;;;;;;;6.93;4.23;;;21.60;99.90;;;;;;4998232;28;20940;-68
2021/09/27 10:33:14;;;;;;;4.40;4.00;;;21.50;99.90;;;;;;5011688;28;20422;-68
2021/09/27 10:35:49;;;;;;;4.50;4.20;;;21.40;99.90;;;;;;4999139;28;20407;-68
2021/09/27 10:38:40;;;;;;;5.70;4.20;;;21.40;99.90;;;;;;4994430;28;20447;-69
2021/09/27 10:41:32;;;;;;;5.00;3.80;;;21.30;99.90;;;;;;4983716;28;20928;-69
2021/09/27 10:44:05;;;;;;;4.90;4.40;;;21.30;99.90;;;;;;4996319;28;20430;-69
2021/09/27 10:46:37;;;;;;;5.73;4.93;;;21.30;99.90;;;;;;4998955;28;20839;-69
2021/09/27 10:49:10;;;;;;;5.73;5.20;;;21.30;99.90;;;;;;4997357;28;20486;-69
2021/09/27 10:51:38;;;;;;;5.40;4.90;;;21.40;99.90;;;;;;4997576;28;20458;-69
2021/09/27 10:54:25;;;;;;;7.10;5.80;;;21.30;99.90;;;;;;4990770;28;20811;-72
2021/09/27 10:56:56;;;;;;;8.87;6.10;;;21.30;99.90;;;;;;4992883;28;20511;-71
2021/09/27 10:59:50;;;;;;;7.20;5.50;;;21.30;99.90;;;;;;4995961;28;20467;-72
2021/09/27 11:02:32;;;;;;;5.73;4.83;;;21.30;99.90;;;;;;4994794;28;20475;-71
2021/09/27 11:05:23;;;;;;;4.67;4.27;;;21.30;99.90;;;;;;4987108;28;20442;-69
2021/09/27 11:07:53;;;;;;;5.40;4.90;;;21.30;99.90;;;;;;4996470;28;20471;-70
2021/09/27 11:10:38;;;;;;;4.90;4.50;;;21.30;99.90;;;;;;4997111;28;20455;-70
2021/09/27 11:13:06;;;;;;;5.63;4.97;;;21.30;99.90;;;;;;4987019;28;20470;-70
2021/09/27 11:15:34;;;;;;;7.20;4.20;;;21.20;99.90;;;;;;4997719;28;20462;-69
2021/09/27 11:18:19;;;;;;;4.67;4.27;;;21.30;99.90;;;;;;5004117;28;20455;-70
2021/09/27 11:20:59;;;;;;;5.00;4.57;;;21.30;99.90;;;;;;4992657;28;20472;-70
2021/09/27 11:23:34;;;;;;;8.07;4.10;;;21.40;99.90;;;;;;5003383;28;20423;-71
2021/09/27 11:26:30;;;;;;;4.73;4.23;;;21.40;99.90;;;;;;4999668;28;20831;-71
2021/09/27 11:29:14;;;;;;;4.67;4.27;;;21.50;99.90;;;;;;5004458;28;20435;-69
2021/09/27 11:31:41;;;;;;;4.40;4.10;;;21.40;99.90;;;;;;5011144;28;20429;-70
2021/09/27 11:34:28;;;;;;;4.87;4.47;;;21.40;99.90;;;;;;4998188;28;20817;-70
2021/09/27 11:37:14;;;;;;;4.37;4.00;;;21.40;99.90;;;;;;4998421;28;20419;-71
2021/09/27 11:39:50;;;;;;;4.40;4.00;;;21.40;99.90;;;;;;4996650;28;20399;-71
2021/09/27 11:42:19;;;;;;;5.90;4.33;;;21.40;99.90;;;;;;4996764;28;20442;-71
2021/09/27 11:45:26;;;;;;;7.03;4.53;;;21.40;99.90;;;;;;4994774;28;20447;-73
2021/09/27 11:47:57;;;;;;;4.87;4.27;;;21.40;99.90;;;;;;4996693;28;20797;-71
2021/09/27 11:50:37;;;;;;;6.47;4.07;;;21.40;99.90;;;;;;4996303;28;20423;-70
2021/09/27 11:53:23;;;;;;;5.37;3.90;;;21.40;99.90;;;;;;4996246;28;20913;-70
2021/09/27 11:55:58;;;;;;;5.77;3.67;;;21.40;99.90;;;;;;4992029;28;20470;-71
2021/09/27 11:58:41;;;;;;;4.20;3.60;;;21.40;99.90;;;;;;4983340;28;20870;-73
2021/09/27 12:01:28;;;;;;;4.17;3.77;;;21.40;99.90;;;;;;4980822;28;20647;-70
2021/09/27 12:03:57;;;;;;;4.60;4.20;;;21.40;99.90;;;;;;4990476;28;20820;-71
2021/09/27 12:06:38;;;;;;;7.70;4.20;;;21.40;99.90;;;;;;4994602;28;20486;-73
2021/09/27 12:09:03;;;;;;;4.20;3.77;;;21.40;99.90;;;;;;4992201;28;20968;-71
2021/09/27 12:11:34;;;;;;;4.00;3.67;;;21.50;99.90;;;;;;5000032;28;20559;-70
2021/09/27 12:14:03;;;;;;;4.33;3.80;;;21.60;99.90;;;;;;4990618;28;20220;-70
2021/09/27 12:16:34;;;;;;;3.97;3.60;;;21.70;99.90;;;;;;4992360;28;21089;-71
2021/09/27 12:19:25;;;;;;;4.80;3.50;;;21.70;99.90;;;;;;4991826;28;21301;-70
2021/09/27 12:21:53;;;;;;;3.63;2.97;;;21.80;99.90;;;;;;4990849;28;21046;-70
2021/09/27 12:24:25;;;;;;;4.33;3.93;;;21.90;99.90;;;;;;4993953;28;20443;-72
2021/09/27 12:27:13;;;;;;;4.27;3.87;;;21.90;99.90;;;;;;4992395;28;20917;-69
2021/09/27 12:30:12;;;;;;;3.13;2.90;;;21.80;99.90;;;;;;4994885;28;20793;-71
2021/09/27 12:32:51;;;;;;;3.00;2.80;;;21.90;99.90;;;;;;4958904;28;20457;-69
2021/09/27 12:35:34;;;;;;;3.33;3.03;;;21.80;99.90;;;;;;4949803;28;20535;-69
2021/09/27 12:38:00;;;;;;;3.13;2.93;;;21.80;99.90;;;;;;4949991;28;20476;-71
2021/09/27 12:40:39;;;;;;;3.50;3.20;;;21.70;99.90;;;;;;4948888;28;20483;-70
2021/09/27 12:43:14;;;;;;;2.87;2.60;;;21.80;99.90;;;;;;4949173;28;20461;-72
2021/09/27 12:45:50;;;;;;;4.90;3.20;;;21.80;99.90;;;;;;4949361;28;20652;-71
2021/09/27 12:48:33;;;;;;;3.10;2.90;;;21.70;99.90;;;;;;4949915;28;20491;-70
2021/09/27 12:51:21;;;;;;;3.33;3.03;;;21.70;99.90;;;;;;4947442;28;20496;-70
2021/09/27 12:54:10;;;;;;;3.93;2.93;;;21.80;99.90;;;;;;4939997;28;20457;-74
2021/09/27 12:56:36;;;;;;;3.13;2.90;;;21.80;99.90;;;;;;4944989;28;20465;-70
2021/09/27 12:59:07;;;;;;;3.53;3.03;;;21.80;99.90;;;;;;4946485;28;21015;-65
2021/09/27 13:01:37;;;;;;;7.77;3.50;;;21.90;99.90;;;;;;4946943;28;20592;-66
2021/09/27 13:04:03;;;;;;;3.30;3.00;;;22.00;99.90;;;;;;4950454;28;20451;-69
2021/09/27 13:06:34;;;;;;;5.83;3.03;;;22.00;99.90;;;;;;4948026;28;20962;-66
2021/09/27 13:09:20;;;;;;;3.50;3.20;;;22.10;99.90;;;;;;4971193;28;20253;-65
2021/09/27 13:11:51;;;;;;;3.10;2.90;;;22.10;99.90;;;;;;4990590;28;20451;-67
2021/09/27 13:14:21;;;;;;;3.50;3.20;;;22.10;99.90;;;;;;4992349;28;20455;-64
2021/09/27 13:16:51;;;;;;;4.97;3.10;;;22.10;99.90;;;;;;5002197;28;20446;-65
2021/09/27 13:19:47;;;;;;;3.30;3.00;;;22.20;99.90;;;;;;4999573;28;20448;-66
2021/09/27 13:22:14;;;;;;;3.50;3.20;;;22.20;99.90;;;;;;4999115;28;20474;-65
2021/09/27 13:24:43;;;;;;;3.63;3.00;;;22.30;99.90;;;;;;5011304;28;20818;-64
2021/09/27 13:27:10;;;;;;;3.10;2.90;;;22.30;99.90;;;;;;4981042;28;20494;-66
2021/09/27 13:29:41;;;;;;;2.63;2.43;;;22.30;99.90;;;;;;4981715;28;20526;-64
2021/09/27 13:32:10;;;;;;;3.10;2.90;;;22.20;99.90;;;;;;5002533;28;20976;-64